sensor_id;sensor_type;location;lat;lon;timestamp;P1;durP1;ratioP1;P2;durP2;ratioP2
51824;SDS011;37879;52.986;6.282;2023-04-25T00:01:44;11.57;;;3.17;;
51824;SDS011;37879;52.986;6.282;2023-04-25T00:04:10;10.18;;;3.58;;
51824;SDS011;37879;52.986;6.282;2023-04-25T00:06:36;12.95;;;4.28;;
51824;SDS011;37879;52.986;6.282;2023-04-25T00:09:03;17.30;;;4.57;;
51824;SDS011;37879;52.986;6.282;2023-04-25T00:11:32;22.83;;;6.18;;
51824;SDS011;37879;52.986;6.282;2023-04-25T00:13:58;21.85;;;5.18;;
51824;SDS011;37879;52.986;6.282;2023-04-25T00:16:24;13.75;;;4.82;;
51824;SDS011;37879;52.986;6.282;2023-04-25T00:18:50;14.18;;;3.70;;
51824;SDS011;37879;52.986;6.282;2023-04-25T00:21:19;12.63;;;5.03;;
51824;SDS011;37879;52.986;6.282;2023-04-25T00:23:45;11.68;;;3.58;;
51824;SDS011;37879;52.986;6.282;2023-04-25T00:26:11;12.85;;;4.80;;
51824;SDS011;37879;52.986;6.282;2023-04-25T00:28:38;10.18;;;3.88;;
51824;SDS011;37879;52.986;6.282;2023-04-25T00:31:04;14.82;;;3.80;;
51824;SDS011;37879;52.986;6.282;2023-04-25T00:33:30;10.07;;;3.38;;
51824;SDS011;37879;52.986;6.282;2023-04-25T00:35:55;10.38;;;3.30;;
51824;SDS011;37879;52.986;6.282;2023-04-25T00:38:21;20.67;;;4.70;;
51824;SDS011;37879;52.986;6.282;2023-04-25T00:40:47;19.48;;;4.68;;
51824;SDS011;37879;52.986;6.282;2023-04-25T00:43:13;16.70;;;3.88;;
51824;SDS011;37879;52.986;6.282;2023-04-25T00:45:39;14.48;;;3.60;;
51824;SDS011;37879;52.986;6.282;2023-04-25T00:48:05;12.38;;;3.65;;
51824;SDS011;37879;52.986;6.282;2023-04-25T00:50:32;13.13;;;4.32;;
51824;SDS011;37879;52.986;6.282;2023-04-25T00:52:59;13.38;;;3.60;;
51824;SDS011;37879;52.986;6.282;2023-04-25T00:55:25;11.77;;;3.22;;
51824;SDS011;37879;52.986;6.282;2023-04-25T00:57:51;10.68;;;3.35;;
51824;SDS011;37879;52.986;6.282;2023-04-25T01:00:17;13.77;;;4.22;;
51824;SDS011;37879;52.986;6.282;2023-04-25T01:02:43;9.73;;;3.80;;
51824;SDS011;37879;52.986;6.282;2023-04-25T01:05:10;11.27;;;3.35;;
51824;SDS011;37879;52.986;6.282;2023-04-25T01:07:37;10.98;;;3.40;;
51824;SDS011;37879;52.986;6.282;2023-04-25T01:10:03;10.55;;;4.13;;
51824;SDS011;37879;52.986;6.282;2023-04-25T01:12:29;10.98;;;2.78;;
51824;SDS011;37879;52.986;6.282;2023-04-25T01:14:55;17.48;;;4.13;;
51824;SDS011;37879;52.986;6.282;2023-04-25T01:17:21;10.57;;;3.05;;
51824;SDS011;37879;52.986;6.282;2023-04-25T01:19:47;12.65;;;3.35;;
51824;SDS011;37879;52.986;6.282;2023-04-25T01:22:14;12.00;;;3.38;;
51824;SDS011;37879;52.986;6.282;2023-04-25T01:24:40;14.40;;;3.10;;
51824;SDS011;37879;52.986;6.282;2023-04-25T01:27:06;17.42;;;3.65;;
51824;SDS011;37879;52.986;6.282;2023-04-25T01:29:32;17.00;;;3.63;;
51824;SDS011;37879;52.986;6.282;2023-04-25T01:31:59;13.65;;;3.70;;
51824;SDS011;37879;52.986;6.282;2023-04-25T01:34:26;12.88;;;4.70;;
51824;SDS011;37879;52.986;6.282;2023-04-25T01:36:51;12.27;;;4.05;;
51824;SDS011;37879;52.986;6.282;2023-04-25T01:39:18;12.15;;;2.92;;
51824;SDS011;37879;52.986;6.282;2023-04-25T01:41:45;11.73;;;2.72;;
51824;SDS011;37879;52.986;6.282;2023-04-25T01:44:12;11.50;;;3.85;;
51824;SDS011;37879;52.986;6.282;2023-04-25T01:46:37;8.32;;;2.70;;
51824;SDS011;37879;52.986;6.282;2023-04-25T01:49:03;9.88;;;3.00;;
51824;SDS011;37879;52.986;6.282;2023-04-25T01:51:29;7.60;;;2.83;;
51824;SDS011;37879;52.986;6.282;2023-04-25T01:53:55;7.78;;;2.72;;
51824;SDS011;37879;52.986;6.282;2023-04-25T01:56:22;12.23;;;2.70;;
51824;SDS011;37879;52.986;6.282;2023-04-25T01:58:48;8.95;;;3.25;;
51824;SDS011;37879;52.986;6.282;2023-04-25T02:01:14;10.05;;;2.13;;
51824;SDS011;37879;52.986;6.282;2023-04-25T02:03:40;12.02;;;3.65;;
51824;SDS011;37879;52.986;6.282;2023-04-25T02:06:05;11.77;;;2.60;;
51824;SDS011;37879;52.986;6.282;2023-04-25T02:08:31;12.45;;;3.10;;
51824;SDS011;37879;52.986;6.282;2023-04-25T02:10:57;10.05;;;2.30;;
51824;SDS011;37879;52.986;6.282;2023-04-25T02:13:23;10.60;;;2.63;;
51824;SDS011;37879;52.986;6.282;2023-04-25T02:15:48;7.85;;;2.47;;
51824;SDS011;37879;52.986;6.282;2023-04-25T02:18:14;9.43;;;2.65;;
51824;SDS011;37879;52.986;6.282;2023-04-25T02:20:41;8.85;;;2.88;;
51824;SDS011;37879;52.986;6.282;2023-04-25T02:23:07;15.68;;;4.38;;
51824;SDS011;37879;52.986;6.282;2023-04-25T02:25:33;7.80;;;3.13;;
51824;SDS011;37879;52.986;6.282;2023-04-25T02:27:58;13.82;;;3.20;;
51824;SDS011;37879;52.986;6.282;2023-04-25T02:30:24;10.68;;;2.13;;
51824;SDS011;37879;52.986;6.282;2023-04-25T02:32:50;9.50;;;2.47;;
51824;SDS011;37879;52.986;6.282;2023-04-25T02:35:16;6.32;;;2.15;;
51824;SDS011;37879;52.986;6.282;2023-04-25T02:37:41;9.88;;;2.25;;
51824;SDS011;37879;52.986;6.282;2023-04-25T02:40:07;7.68;;;2.40;;
51824;SDS011;37879;52.986;6.282;2023-04-25T02:42:33;6.50;;;1.90;;
51824;SDS011;37879;52.986;6.282;2023-04-25T02:44:59;8.70;;;2.05;;
51824;SDS011;37879;52.986;6.282;2023-04-25T02:47:25;9.45;;;2.15;;
51824;SDS011;37879;52.986;6.282;2023-04-25T02:49:51;7.47;;;1.55;;
51824;SDS011;37879;52.986;6.282;2023-04-25T02:52:16;8.15;;;2.42;;
51824;SDS011;37879;52.986;6.282;2023-04-25T02:54:42;8.88;;;1.92;;
51824;SDS011;37879;52.986;6.282;2023-04-25T02:57:08;7.32;;;1.98;;
51824;SDS011;37879;52.986;6.282;2023-04-25T02:59:34;9.60;;;2.22;;
51824;SDS011;37879;52.986;6.282;2023-04-25T03:02:00;7.05;;;1.90;;
51824;SDS011;37879;52.986;6.282;2023-04-25T03:04:26;11.43;;;3.13;;
51824;SDS011;37879;52.986;6.282;2023-04-25T03:06:52;8.00;;;1.00;;
51824;SDS011;37879;52.986;6.282;2023-04-25T03:09:18;5.68;;;1.17;;
51824;SDS011;37879;52.986;6.282;2023-04-25T03:11:45;5.65;;;1.63;;
51824;SDS011;37879;52.986;6.282;2023-04-25T03:14:11;4.65;;;1.00;;
51824;SDS011;37879;52.986;6.282;2023-04-25T03:16:37;6.38;;;1.90;;
51824;SDS011;37879;52.986;6.282;2023-04-25T03:19:03;4.28;;;1.15;;
51824;SDS011;37879;52.986;6.282;2023-04-25T03:21:30;3.55;;;0.80;;
51824;SDS011;37879;52.986;6.282;2023-04-25T03:24:00;4.85;;;1.00;;
51824;SDS011;37879;52.986;6.282;2023-04-25T03:26:27;9.55;;;1.70;;
51824;SDS011;37879;52.986;6.282;2023-04-25T03:28:53;6.80;;;1.60;;
51824;SDS011;37879;52.986;6.282;2023-04-25T03:31:19;5.47;;;2.03;;
51824;SDS011;37879;52.986;6.282;2023-04-25T03:33:45;4.50;;;1.15;;
51824;SDS011;37879;52.986;6.282;2023-04-25T03:36:10;4.25;;;1.42;;
51824;SDS011;37879;52.986;6.282;2023-04-25T03:38:36;5.57;;;1.77;;
51824;SDS011;37879;52.986;6.282;2023-04-25T03:41:02;5.70;;;1.50;;
51824;SDS011;37879;52.986;6.282;2023-04-25T03:43:28;4.60;;;1.52;;
51824;SDS011;37879;52.986;6.282;2023-04-25T03:45:53;7.20;;;1.48;;
51824;SDS011;37879;52.986;6.282;2023-04-25T03:48:19;6.78;;;2.10;;
51824;SDS011;37879;52.986;6.282;2023-04-25T03:50:47;4.53;;;1.27;;
51824;SDS011;37879;52.986;6.282;2023-04-25T03:53:13;4.40;;;1.38;;
51824;SDS011;37879;52.986;6.282;2023-04-25T03:55:38;8.82;;;2.33;;
51824;SDS011;37879;52.986;6.282;2023-04-25T03:58:04;8.60;;;1.63;;
51824;SDS011;37879;52.986;6.282;2023-04-25T04:00:30;7.53;;;1.40;;
51824;SDS011;37879;52.986;6.282;2023-04-25T04:02:55;8.45;;;2.15;;
51824;SDS011;37879;52.986;6.282;2023-04-25T04:05:21;4.00;;;1.40;;
51824;SDS011;37879;52.986;6.282;2023-04-25T04:07:47;5.03;;;1.73;;
51824;SDS011;37879;52.986;6.282;2023-04-25T04:10:13;22.02;;;4.30;;
51824;SDS011;37879;52.986;6.282;2023-04-25T04:12:38;8.77;;;1.50;;
51824;SDS011;37879;52.986;6.282;2023-04-25T04:15:04;5.32;;;1.38;;
51824;SDS011;37879;52.986;6.282;2023-04-25T04:17:31;5.78;;;1.23;;
51824;SDS011;37879;52.986;6.282;2023-04-25T04:19:57;4.93;;;1.63;;
51824;SDS011;37879;52.986;6.282;2023-04-25T04:22:23;8.85;;;1.83;;
51824;SDS011;37879;52.986;6.282;2023-04-25T04:24:49;8.85;;;2.15;;
51824;SDS011;37879;52.986;6.282;2023-04-25T04:27:18;6.15;;;1.45;;
51824;SDS011;37879;52.986;6.282;2023-04-25T04:29:44;7.53;;;1.33;;
51824;SDS011;37879;52.986;6.282;2023-04-25T04:32:11;7.28;;;1.70;;
51824;SDS011;37879;52.986;6.282;2023-04-25T04:34:37;3.97;;;1.33;;
51824;SDS011;37879;52.986;6.282;2023-04-25T04:37:04;4.90;;;1.58;;
51824;SDS011;37879;52.986;6.282;2023-04-25T04:39:30;8.40;;;1.90;;
51824;SDS011;37879;52.986;6.282;2023-04-25T04:41:56;5.22;;;2.35;;
51824;SDS011;37879;52.986;6.282;2023-04-25T04:44:22;5.60;;;1.88;;
51824;SDS011;37879;52.986;6.282;2023-04-25T04:46:47;8.55;;;1.70;;
51824;SDS011;37879;52.986;6.282;2023-04-25T04:49:13;5.63;;;1.35;;
51824;SDS011;37879;52.986;6.282;2023-04-25T04:51:39;16.67;;;3.70;;
51824;SDS011;37879;52.986;6.282;2023-04-25T04:54:06;6.72;;;1.70;;
51824;SDS011;37879;52.986;6.282;2023-04-25T04:56:32;9.90;;;1.90;;
51824;SDS011;37879;52.986;6.282;2023-04-25T04:58:58;8.85;;;1.52;;
51824;SDS011;37879;52.986;6.282;2023-04-25T05:01:24;4.50;;;1.35;;
51824;SDS011;37879;52.986;6.282;2023-04-25T05:03:50;14.05;;;2.05;;
51824;SDS011;37879;52.986;6.282;2023-04-25T05:06:17;8.00;;;2.05;;
51824;SDS011;37879;52.986;6.282;2023-04-25T05:08:44;6.25;;;1.80;;
51824;SDS011;37879;52.986;6.282;2023-04-25T05:11:09;10.88;;;2.20;;
51824;SDS011;37879;52.986;6.282;2023-04-25T05:13:36;7.35;;;1.80;;
51824;SDS011;37879;52.986;6.282;2023-04-25T05:16:02;7.95;;;2.80;;
51824;SDS011;37879;52.986;6.282;2023-04-25T05:18:27;9.02;;;2.38;;
51824;SDS011;37879;52.986;6.282;2023-04-25T05:20:53;8.18;;;1.75;;
51824;SDS011;37879;52.986;6.282;2023-04-25T05:23:19;10.98;;;2.95;;
51824;SDS011;37879;52.986;6.282;2023-04-25T05:25:44;8.95;;;2.10;;
51824;SDS011;37879;52.986;6.282;2023-04-25T05:28:12;9.07;;;3.55;;
51824;SDS011;37879;52.986;6.282;2023-04-25T05:30:38;7.25;;;2.47;;
51824;SDS011;37879;52.986;6.282;2023-04-25T05:33:04;8.23;;;3.67;;
51824;SDS011;37879;52.986;6.282;2023-04-25T05:35:30;11.95;;;3.58;;
51824;SDS011;37879;52.986;6.282;2023-04-25T05:37:55;7.88;;;2.05;;
51824;SDS011;37879;52.986;6.282;2023-04-25T05:40:21;7.90;;;2.28;;
51824;SDS011;37879;52.986;6.282;2023-04-25T05:42:47;8.93;;;2.10;;
51824;SDS011;37879;52.986;6.282;2023-04-25T05:45:12;8.60;;;2.25;;
51824;SDS011;37879;52.986;6.282;2023-04-25T05:47:38;4.88;;;1.52;;
51824;SDS011;37879;52.986;6.282;2023-04-25T05:50:04;9.48;;;2.08;;
51824;SDS011;37879;52.986;6.282;2023-04-25T05:52:31;6.72;;;1.70;;
51824;SDS011;37879;52.986;6.282;2023-04-25T05:54:56;7.82;;;2.47;;
51824;SDS011;37879;52.986;6.282;2023-04-25T05:57:25;8.90;;;1.67;;
51824;SDS011;37879;52.986;6.282;2023-04-25T05:59:52;9.48;;;1.60;;
51824;SDS011;37879;52.986;6.282;2023-04-25T06:02:18;8.68;;;1.80;;
51824;SDS011;37879;52.986;6.282;2023-04-25T06:04:45;6.38;;;1.55;;
51824;SDS011;37879;52.986;6.282;2023-04-25T06:07:11;4.10;;;1.45;;
51824;SDS011;37879;52.986;6.282;2023-04-25T06:09:38;4.60;;;1.50;;
51824;SDS011;37879;52.986;6.282;2023-04-25T06:12:05;6.43;;;1.90;;
51824;SDS011;37879;52.986;6.282;2023-04-25T06:14:31;5.72;;;2.45;;
51824;SDS011;37879;52.986;6.282;2023-04-25T06:16:56;8.02;;;2.67;;
51824;SDS011;37879;52.986;6.282;2023-04-25T06:19:22;9.40;;;1.85;;
51824;SDS011;37879;52.986;6.282;2023-04-25T06:21:47;5.18;;;1.77;;
51824;SDS011;37879;52.986;6.282;2023-04-25T06:24:13;5.93;;;1.58;;
51824;SDS011;37879;52.986;6.282;2023-04-25T06:26:39;4.10;;;1.30;;
51824;SDS011;37879;52.986;6.282;2023-04-25T06:29:04;7.63;;;1.77;;
51824;SDS011;37879;52.986;6.282;2023-04-25T06:31:30;6.07;;;1.90;;
51824;SDS011;37879;52.986;6.282;2023-04-25T06:33:58;8.32;;;1.60;;
51824;SDS011;37879;52.986;6.282;2023-04-25T06:36:23;5.65;;;1.55;;
51824;SDS011;37879;52.986;6.282;2023-04-25T06:38:51;8.23;;;1.38;;
51824;SDS011;37879;52.986;6.282;2023-04-25T06:41:17;3.08;;;1.13;;
51824;SDS011;37879;52.986;6.282;2023-04-25T06:43:43;3.90;;;0.77;;
51824;SDS011;37879;52.986;6.282;2023-04-25T06:46:09;4.03;;;1.13;;
51824;SDS011;37879;52.986;6.282;2023-04-25T06:48:35;5.85;;;1.10;;
51824;SDS011;37879;52.986;6.282;2023-04-25T06:51:00;3.20;;;0.68;;
51824;SDS011;37879;52.986;6.282;2023-04-25T06:53:26;4.13;;;0.95;;
51824;SDS011;37879;52.986;6.282;2023-04-25T06:55:52;5.35;;;1.23;;
51824;SDS011;37879;52.986;6.282;2023-04-25T06:58:18;7.57;;;0.90;;
51824;SDS011;37879;52.986;6.282;2023-04-25T07:00:43;3.55;;;0.98;;
51824;SDS011;37879;52.986;6.282;2023-04-25T07:03:09;3.38;;;0.88;;
51824;SDS011;37879;52.986;6.282;2023-04-25T07:05:35;2.63;;;0.98;;
51824;SDS011;37879;52.986;6.282;2023-04-25T07:08:00;3.53;;;0.60;;
51824;SDS011;37879;52.986;6.282;2023-04-25T07:10:26;3.60;;;1.45;;
51824;SDS011;37879;52.986;6.282;2023-04-25T07:12:52;5.82;;;1.13;;
51824;SDS011;37879;52.986;6.282;2023-04-25T07:15:18;8.05;;;2.58;;
51824;SDS011;37879;52.986;6.282;2023-04-25T07:17:43;4.22;;;0.70;;
51824;SDS011;37879;52.986;6.282;2023-04-25T07:20:09;5.18;;;1.20;;
51824;SDS011;37879;52.986;6.282;2023-04-25T07:22:35;6.35;;;1.33;;
51824;SDS011;37879;52.986;6.282;2023-04-25T07:25:01;9.95;;;1.20;;
51824;SDS011;37879;52.986;6.282;2023-04-25T07:27:27;5.63;;;1.88;;
51824;SDS011;37879;52.986;6.282;2023-04-25T07:29:53;4.50;;;1.15;;
51824;SDS011;37879;52.986;6.282;2023-04-25T07:32:19;3.08;;;0.82;;
51824;SDS011;37879;52.986;6.282;2023-04-25T07:34:44;4.50;;;1.00;;
51824;SDS011;37879;52.986;6.282;2023-04-25T07:37:10;4.40;;;1.20;;
51824;SDS011;37879;52.986;6.282;2023-04-25T07:39:36;5.40;;;1.38;;
51824;SDS011;37879;52.986;6.282;2023-04-25T07:42:02;6.18;;;1.90;;
51824;SDS011;37879;52.986;6.282;2023-04-25T07:44:28;10.55;;;2.65;;
51824;SDS011;37879;52.986;6.282;2023-04-25T07:46:55;5.25;;;1.42;;
51824;SDS011;37879;52.986;6.282;2023-04-25T07:49:21;5.45;;;1.65;;
51824;SDS011;37879;52.986;6.282;2023-04-25T07:51:47;9.40;;;1.55;;
51824;SDS011;37879;52.986;6.282;2023-04-25T07:54:13;4.53;;;1.10;;
51824;SDS011;37879;52.986;6.282;2023-04-25T07:56:40;6.68;;;1.50;;
51824;SDS011;37879;52.986;6.282;2023-04-25T07:59:06;6.18;;;1.65;;
51824;SDS011;37879;52.986;6.282;2023-04-25T08:01:33;6.05;;;1.13;;
51824;SDS011;37879;52.986;6.282;2023-04-25T08:04:02;5.22;;;0.95;;
51824;SDS011;37879;52.986;6.282;2023-04-25T08:06:27;5.22;;;1.52;;
51824;SDS011;37879;52.986;6.282;2023-04-25T08:08:53;4.28;;;1.17;;
51824;SDS011;37879;52.986;6.282;2023-04-25T08:11:19;4.25;;;1.25;;
51824;SDS011;37879;52.986;6.282;2023-04-25T08:13:44;6.30;;;1.70;;
51824;SDS011;37879;52.986;6.282;2023-04-25T08:16:10;5.80;;;1.13;;
51824;SDS011;37879;52.986;6.282;2023-04-25T08:18:35;7.05;;;1.45;;
51824;SDS011;37879;52.986;6.282;2023-04-25T08:21:01;7.88;;;1.50;;
51824;SDS011;37879;52.986;6.282;2023-04-25T08:23:27;6.82;;;0.90;;
51824;SDS011;37879;52.986;6.282;2023-04-25T08:25:53;6.30;;;1.33;;
51824;SDS011;37879;52.986;6.282;2023-04-25T08:28:18;5.53;;;1.10;;
51824;SDS011;37879;52.986;6.282;2023-04-25T08:30:44;5.88;;;1.63;;
51824;SDS011;37879;52.986;6.282;2023-04-25T08:33:10;7.50;;;1.30;;
51824;SDS011;37879;52.986;6.282;2023-04-25T08:35:36;5.53;;;1.30;;
51824;SDS011;37879;52.986;6.282;2023-04-25T08:38:01;5.55;;;1.50;;
51824;SDS011;37879;52.986;6.282;2023-04-25T08:40:27;5.97;;;1.30;;
51824;SDS011;37879;52.986;6.282;2023-04-25T08:42:59;5.68;;;1.60;;
51824;SDS011;37879;52.986;6.282;2023-04-25T08:45:28;3.65;;;1.17;;
51824;SDS011;37879;52.986;6.282;2023-04-25T08:47:57;8.75;;;1.25;;
51824;SDS011;37879;52.986;6.282;2023-04-25T08:50:23;3.92;;;0.95;;
51824;SDS011;37879;52.986;6.282;2023-04-25T08:52:51;14.13;;;2.72;;
51824;SDS011;37879;52.986;6.282;2023-04-25T08:55:19;5.13;;;1.17;;
51824;SDS011;37879;52.986;6.282;2023-04-25T08:57:47;3.42;;;0.55;;
51824;SDS011;37879;52.986;6.282;2023-04-25T09:00:13;4.80;;;1.67;;
51824;SDS011;37879;52.986;6.282;2023-04-25T09:02:39;2.25;;;0.52;;
51824;SDS011;37879;52.986;6.282;2023-04-25T09:05:07;6.90;;;1.08;;
51824;SDS011;37879;52.986;6.282;2023-04-25T09:07:34;3.50;;;0.73;;
51824;SDS011;37879;52.986;6.282;2023-04-25T09:10:00;3.22;;;0.80;;
51824;SDS011;37879;52.986;6.282;2023-04-25T09:12:28;4.38;;;1.15;;
51824;SDS011;37879;52.986;6.282;2023-04-25T09:15:02;4.43;;;0.80;;
51824;SDS011;37879;52.986;6.282;2023-04-25T09:17:35;6.28;;;0.95;;
51824;SDS011;37879;52.986;6.282;2023-04-25T09:20:06;4.78;;;1.50;;
51824;SDS011;37879;52.986;6.282;2023-04-25T09:22:38;5.78;;;1.05;;
51824;SDS011;37879;52.986;6.282;2023-04-25T09:25:11;5.40;;;1.20;;
51824;SDS011;37879;52.986;6.282;2023-04-25T09:28:12;4.00;;;1.15;;
51824;SDS011;37879;52.986;6.282;2023-04-25T09:30:32;2.30;;;0.85;;
51824;SDS011;37879;52.986;6.282;2023-04-25T09:33:06;3.47;;;0.80;;
51824;SDS011;37879;52.986;6.282;2023-04-25T09:35:37;3.33;;;1.13;;
51824;SDS011;37879;52.986;6.282;2023-04-25T09:38:11;6.03;;;1.30;;
51824;SDS011;37879;52.986;6.282;2023-04-25T09:40:39;3.40;;;0.80;;
51824;SDS011;37879;52.986;6.282;2023-04-25T09:43:21;11.05;;;2.00;;
51824;SDS011;37879;52.986;6.282;2023-04-25T09:45:48;11.23;;;2.17;;
51824;SDS011;37879;52.986;6.282;2023-04-25T09:48:18;5.38;;;1.10;;
51824;SDS011;37879;52.986;6.282;2023-04-25T09:50:45;4.47;;;1.00;;
51824;SDS011;37879;52.986;6.282;2023-04-25T09:53:28;2.95;;;0.90;;
51824;SDS011;37879;52.986;6.282;2023-04-25T09:55:55;8.02;;;1.40;;
51824;SDS011;37879;52.986;6.282;2023-04-25T09:58:21;5.95;;;1.48;;
51824;SDS011;37879;52.986;6.282;2023-04-25T10:00:49;3.28;;;1.17;;
51824;SDS011;37879;52.986;6.282;2023-04-25T10:03:17;5.28;;;0.73;;
51824;SDS011;37879;52.986;6.282;2023-04-25T10:05:44;4.85;;;1.30;;
51824;SDS011;37879;52.986;6.282;2023-04-25T10:08:13;6.97;;;1.50;;
51824;SDS011;37879;52.986;6.282;2023-04-25T10:10:39;7.80;;;1.70;;
51824;SDS011;37879;52.986;6.282;2023-04-25T10:13:05;7.03;;;1.27;;
51824;SDS011;37879;52.986;6.282;2023-04-25T10:15:34;5.70;;;1.23;;
51824;SDS011;37879;52.986;6.282;2023-04-25T10:18:03;3.47;;;0.82;;
51824;SDS011;37879;52.986;6.282;2023-04-25T10:20:30;4.80;;;1.10;;
51824;SDS011;37879;52.986;6.282;2023-04-25T10:23:03;7.68;;;1.90;;
51824;SDS011;37879;52.986;6.282;2023-04-25T10:25:38;5.35;;;1.20;;
51824;SDS011;37879;52.986;6.282;2023-04-25T10:28:05;3.50;;;1.15;;
51824;SDS011;37879;52.986;6.282;2023-04-25T10:30:31;8.50;;;1.20;;
51824;SDS011;37879;52.986;6.282;2023-04-25T10:32:58;8.85;;;1.83;;
51824;SDS011;37879;52.986;6.282;2023-04-25T10:35:25;11.73;;;1.67;;
51824;SDS011;37879;52.986;6.282;2023-04-25T10:37:56;5.97;;;1.10;;
51824;SDS011;37879;52.986;6.282;2023-04-25T10:40:34;6.30;;;1.20;;
51824;SDS011;37879;52.986;6.282;2023-04-25T10:48:56;4.93;;;1.20;;
51824;SDS011;37879;52.986;6.282;2023-04-25T10:51:24;7.20;;;1.05;;
51824;SDS011;37879;52.986;6.282;2023-04-25T10:56:21;2.88;;;0.60;;
51824;SDS011;37879;52.986;6.282;2023-04-25T10:58:47;3.22;;;0.52;;
51824;SDS011;37879;52.986;6.282;2023-04-25T11:01:14;1.80;;;0.40;;
51824;SDS011;37879;52.986;6.282;2023-04-25T11:03:49;3.13;;;0.65;;
51824;SDS011;37879;52.986;6.282;2023-04-25T11:06:25;2.50;;;0.63;;
51824;SDS011;37879;52.986;6.282;2023-04-25T11:09:02;4.80;;;0.55;;
51824;SDS011;37879;52.986;6.282;2023-04-25T11:11:33;5.05;;;0.75;;
51824;SDS011;37879;52.986;6.282;2023-04-25T11:14:01;1.60;;;0.77;;
51824;SDS011;37879;52.986;6.282;2023-04-25T11:16:27;3.00;;;0.80;;
51824;SDS011;37879;52.986;6.282;2023-04-25T11:18:53;6.57;;;2.00;;
51824;SDS011;37879;52.986;6.282;2023-04-25T11:21:21;6.50;;;1.20;;
51824;SDS011;37879;52.986;6.282;2023-04-25T11:23:47;11.70;;;2.63;;
51824;SDS011;37879;52.986;6.282;2023-04-25T11:26:13;6.72;;;1.27;;
51824;SDS011;37879;52.986;6.282;2023-04-25T11:28:40;3.25;;;0.90;;
51824;SDS011;37879;52.986;6.282;2023-04-25T11:31:09;4.82;;;1.15;;
51824;SDS011;37879;52.986;6.282;2023-04-25T11:33:35;4.65;;;0.93;;
51824;SDS011;37879;52.986;6.282;2023-04-25T11:36:01;1.15;;;0.57;;
51824;SDS011;37879;52.986;6.282;2023-04-25T11:38:26;4.28;;;0.85;;
51824;SDS011;37879;52.986;6.282;2023-04-25T11:40:53;4.78;;;1.20;;
51824;SDS011;37879;52.986;6.282;2023-04-25T11:43:22;6.32;;;0.90;;
51824;SDS011;37879;52.986;6.282;2023-04-25T11:45:48;4.32;;;1.02;;
51824;SDS011;37879;52.986;6.282;2023-04-25T11:48:16;2.70;;;0.77;;
51824;SDS011;37879;52.986;6.282;2023-04-25T11:50:42;5.07;;;1.05;;
51824;SDS011;37879;52.986;6.282;2023-04-25T11:53:08;5.38;;;1.77;;
51824;SDS011;37879;52.986;6.282;2023-04-25T11:55:33;5.18;;;1.10;;
51824;SDS011;37879;52.986;6.282;2023-04-25T11:58:00;3.47;;;1.08;;
51824;SDS011;37879;52.986;6.282;2023-04-25T12:00:26;1.27;;;0.47;;
51824;SDS011;37879;52.986;6.282;2023-04-25T12:02:54;3.58;;;1.10;;
51824;SDS011;37879;52.986;6.282;2023-04-25T12:05:23;6.82;;;1.25;;
51824;SDS011;37879;52.986;6.282;2023-04-25T12:07:51;2.92;;;0.98;;
51824;SDS011;37879;52.986;6.282;2023-04-25T12:10:17;6.45;;;1.33;;
51824;SDS011;37879;52.986;6.282;2023-04-25T12:12:45;6.43;;;1.38;;
51824;SDS011;37879;52.986;6.282;2023-04-25T12:17:48;4.78;;;1.17;;
51824;SDS011;37879;52.986;6.282;2023-04-25T12:20:16;5.78;;;1.60;;
51824;SDS011;37879;52.986;6.282;2023-04-25T12:22:51;5.72;;;0.90;;
51824;SDS011;37879;52.986;6.282;2023-04-25T12:28:16;3.53;;;1.00;;
51824;SDS011;37879;52.986;6.282;2023-04-25T12:30:52;6.10;;;1.25;;
51824;SDS011;37879;52.986;6.282;2023-04-25T12:33:18;4.20;;;1.10;;
51824;SDS011;37879;52.986;6.282;2023-04-25T12:35:43;8.52;;;1.75;;
51824;SDS011;37879;52.986;6.282;2023-04-25T12:38:09;4.75;;;0.82;;
51824;SDS011;37879;52.986;6.282;2023-04-25T12:40:36;4.25;;;1.02;;
51824;SDS011;37879;52.986;6.282;2023-04-25T12:43:01;3.15;;;1.10;;
51824;SDS011;37879;52.986;6.282;2023-04-25T12:45:27;3.80;;;1.00;;
51824;SDS011;37879;52.986;6.282;2023-04-25T12:47:52;4.65;;;1.23;;
51824;SDS011;37879;52.986;6.282;2023-04-25T12:50:18;6.00;;;1.23;;
51824;SDS011;37879;52.986;6.282;2023-04-25T12:52:44;8.82;;;1.00;;
51824;SDS011;37879;52.986;6.282;2023-04-25T12:55:09;4.53;;;0.98;;
51824;SDS011;37879;52.986;6.282;2023-04-25T12:57:35;9.85;;;1.48;;
51824;SDS011;37879;52.986;6.282;2023-04-25T13:00:00;7.45;;;2.47;;
51824;SDS011;37879;52.986;6.282;2023-04-25T13:02:26;4.85;;;1.15;;
51824;SDS011;37879;52.986;6.282;2023-04-25T13:04:52;6.75;;;1.88;;
51824;SDS011;37879;52.986;6.282;2023-04-25T13:07:17;6.28;;;1.40;;
51824;SDS011;37879;52.986;6.282;2023-04-25T13:09:43;8.88;;;1.60;;
51824;SDS011;37879;52.986;6.282;2023-04-25T13:12:09;9.20;;;1.15;;
51824;SDS011;37879;52.986;6.282;2023-04-25T13:14:34;5.25;;;1.67;;
51824;SDS011;37879;52.986;6.282;2023-04-25T13:17:00;7.07;;;1.60;;
51824;SDS011;37879;52.986;6.282;2023-04-25T13:19:26;7.95;;;1.63;;
51824;SDS011;37879;52.986;6.282;2023-04-25T13:21:51;5.97;;;1.30;;
51824;SDS011;37879;52.986;6.282;2023-04-25T13:24:17;4.60;;;0.90;;
51824;SDS011;37879;52.986;6.282;2023-04-25T13:26:43;5.10;;;1.05;;
51824;SDS011;37879;52.986;6.282;2023-04-25T13:29:09;9.75;;;2.05;;
51824;SDS011;37879;52.986;6.282;2023-04-25T13:31:34;4.78;;;1.40;;
51824;SDS011;37879;52.986;6.282;2023-04-25T13:34:00;3.42;;;1.00;;
51824;SDS011;37879;52.986;6.282;2023-04-25T13:36:26;7.07;;;1.52;;
51824;SDS011;37879;52.986;6.282;2023-04-25T13:38:52;5.38;;;0.85;;
51824;SDS011;37879;52.986;6.282;2023-04-25T13:41:18;3.53;;;0.70;;
51824;SDS011;37879;52.986;6.282;2023-04-25T13:43:45;3.17;;;0.82;;
51824;SDS011;37879;52.986;6.282;2023-04-25T13:46:12;3.03;;;0.85;;
51824;SDS011;37879;52.986;6.282;2023-04-25T13:48:38;6.57;;;0.98;;
51824;SDS011;37879;52.986;6.282;2023-04-25T13:51:04;4.78;;;0.82;;
51824;SDS011;37879;52.986;6.282;2023-04-25T13:53:30;5.28;;;1.30;;
51824;SDS011;37879;52.986;6.282;2023-04-25T13:55:55;4.53;;;1.13;;
51824;SDS011;37879;52.986;6.282;2023-04-25T13:58:21;5.47;;;1.17;;
51824;SDS011;37879;52.986;6.282;2023-04-25T14:00:47;5.30;;;1.00;;
51824;SDS011;37879;52.986;6.282;2023-04-25T14:03:13;3.58;;;1.20;;
51824;SDS011;37879;52.986;6.282;2023-04-25T14:05:38;15.35;;;1.52;;
51824;SDS011;37879;52.986;6.282;2023-04-25T14:08:05;8.00;;;1.52;;
51824;SDS011;37879;52.986;6.282;2023-04-25T14:10:34;5.15;;;0.95;;
51824;SDS011;37879;52.986;6.282;2023-04-25T14:13:00;5.30;;;1.17;;
51824;SDS011;37879;52.986;6.282;2023-04-25T14:15:28;3.85;;;0.75;;
51824;SDS011;37879;52.986;6.282;2023-04-25T14:17:55;9.88;;;1.65;;
51824;SDS011;37879;52.986;6.282;2023-04-25T14:20:21;6.22;;;1.45;;
51824;SDS011;37879;52.986;6.282;2023-04-25T14:22:48;4.25;;;0.90;;
51824;SDS011;37879;52.986;6.282;2023-04-25T14:25:14;6.75;;;1.30;;
51824;SDS011;37879;52.986;6.282;2023-04-25T14:27:40;5.43;;;1.50;;
51824;SDS011;37879;52.986;6.282;2023-04-25T14:30:07;13.43;;;1.85;;
51824;SDS011;37879;52.986;6.282;2023-04-25T14:32:34;6.55;;;1.90;;
51824;SDS011;37879;52.986;6.282;2023-04-25T14:35:01;11.05;;;1.88;;
51824;SDS011;37879;52.986;6.282;2023-04-25T14:37:28;5.03;;;1.10;;
51824;SDS011;37879;52.986;6.282;2023-04-25T14:39:54;9.65;;;2.22;;
51824;SDS011;37879;52.986;6.282;2023-04-25T14:42:20;7.55;;;1.48;;
51824;SDS011;37879;52.986;6.282;2023-04-25T14:44:45;11.65;;;2.28;;
51824;SDS011;37879;52.986;6.282;2023-04-25T14:47:11;3.97;;;1.15;;
51824;SDS011;37879;52.986;6.282;2023-04-25T14:49:37;6.78;;;1.90;;
51824;SDS011;37879;52.986;6.282;2023-04-25T14:52:03;6.75;;;1.67;;
51824;SDS011;37879;52.986;6.282;2023-04-25T14:54:29;6.15;;;1.27;;
51824;SDS011;37879;52.986;6.282;2023-04-25T14:56:56;2.70;;;0.75;;